sensor_id;sensor_type;location;lat;lon;timestamp;P1;P2;P0
76661;PMS5003;65579;45.534;6.212;2023-04-01T00:00:56;2;2;
76661;PMS5003;65579;45.534;6.212;2023-04-01T00:03:22;3;3;
76661;PMS5003;65579;45.534;6.212;2023-04-01T00:05:46;2;2;
76661;PMS5003;65579;45.534;6.212;2023-04-01T00:08:12;5;5;
76661;PMS5003;65579;45.534;6.212;2023-04-01T00:10:37;5;5;
76661;PMS5003;65579;45.534;6.212;2023-04-01T00:13:02;3;3;
76661;PMS5003;65579;45.534;6.212;2023-04-01T00:15:27;5;4;
76661;PMS5003;65579;45.534;6.212;2023-04-01T00:17:53;3;3;
76661;PMS5003;65579;45.534;6.212;2023-04-01T00:20:18;3;3;
76661;PMS5003;65579;45.534;6.212;2023-04-01T00:22:43;3;3;
76661;PMS5003;65579;45.534;6.212;2023-04-01T00:25:09;3;3;
76661;PMS5003;65579;45.534;6.212;2023-04-01T00:27:34;4;4;
76661;PMS5003;65579;45.534;6.212;2023-04-01T00:29:59;6;5;
76661;PMS5003;65579;45.534;6.212;2023-04-01T00:32:25;3;3;
76661;PMS5003;65579;45.534;6.212;2023-04-01T00:34:50;2;2;
76661;PMS5003;65579;45.534;6.212;2023-04-01T00:37:16;4;4;
76661;PMS5003;65579;45.534;6.212;2023-04-01T00:39:42;3;3;
76661;PMS5003;65579;45.534;6.212;2023-04-01T00:42:08;3;3;
76661;PMS5003;65579;45.534;6.212;2023-04-01T00:44:33;3;3;
76661;PMS5003;65579;45.534;6.212;2023-04-01T00:46:58;2;2;
76661;PMS5003;65579;45.534;6.212;2023-04-01T00:49:24;2;2;
76661;PMS5003;65579;45.534;6.212;2023-04-01T00:51:50;9;7;
76661;PMS5003;65579;45.534;6.212;2023-04-01T00:54:14;5;5;
76661;PMS5003;65579;45.534;6.212;2023-04-01T00:56:41;5;3;
76661;PMS5003;65579;45.534;6.212;2023-04-01T00:59:06;3;3;
76661;PMS5003;65579;45.534;6.212;2023-04-01T01:01:30;3;3;
76661;PMS5003;65579;45.534;6.212;2023-04-01T01:03:55;3;3;
76661;PMS5003;65579;45.534;6.212;2023-04-01T01:06:24;3;3;
76661;PMS5003;65579;45.534;6.212;2023-04-01T01:08:52;4;2;
76661;PMS5003;65579;45.534;6.212;2023-04-01T01:11:11;5;3;
76661;PMS5003;65579;45.534;6.212;2023-04-01T01:13:39;5;5;
76661;PMS5003;65579;45.534;6.212;2023-04-01T01:16:04;5;5;
76661;PMS5003;65579;45.534;6.212;2023-04-01T01:18:30;4;3;
76661;PMS5003;65579;45.534;6.212;2023-04-01T01:20:57;2;2;
76661;PMS5003;65579;45.534;6.212;2023-04-01T01:25:44;4;3;
76661;PMS5003;65579;45.534;6.212;2023-04-01T01:28:14;3;3;
76661;PMS5003;65579;45.534;6.212;2023-04-01T01:30:36;2;2;
76661;PMS5003;65579;45.534;6.212;2023-04-01T01:33:04;2;2;
76661;PMS5003;65579;45.534;6.212;2023-04-01T01:35:26;4;2;
76661;PMS5003;65579;45.534;6.212;2023-04-01T01:37:52;2;2;
76661;PMS5003;65579;45.534;6.212;2023-04-01T01:40:15;2;2;
76661;PMS5003;65579;45.534;6.212;2023-04-01T01:42:41;3;3;
76661;PMS5003;65579;45.534;6.212;2023-04-01T01:45:07;4;3;
76661;PMS5003;65579;45.534;6.212;2023-04-01T01:47:31;2;2;
76661;PMS5003;65579;45.534;6.212;2023-04-01T01:49:57;4;2;
76661;PMS5003;65579;45.534;6.212;2023-04-01T01:52:22;3;2;
76661;PMS5003;65579;45.534;6.212;2023-04-01T01:54:48;1;1;
76661;PMS5003;65579;45.534;6.212;2023-04-01T01:57:13;1;1;
76661;PMS5003;65579;45.534;6.212;2023-04-01T01:59:38;3;2;
76661;PMS5003;65579;45.534;6.212;2023-04-01T02:02:04;3;3;
76661;PMS5003;65579;45.534;6.212;2023-04-01T02:04:29;3;2;
76661;PMS5003;65579;45.534;6.212;2023-04-01T02:06:55;1;1;
76661;PMS5003;65579;45.534;6.212;2023-04-01T02:09:20;2;2;
76661;PMS5003;65579;45.534;6.212;2023-04-01T02:11:46;3;3;
76661;PMS5003;65579;45.534;6.212;2023-04-01T02:14:11;4;3;
76661;PMS5003;65579;45.534;6.212;2023-04-01T02:16:37;1;1;
76661;PMS5003;65579;45.534;6.212;2023-04-01T02:19:02;2;2;
76661;PMS5003;65579;45.534;6.212;2023-04-01T02:21:27;1;1;
76661;PMS5003;65579;45.534;6.212;2023-04-01T02:23:52;1;1;
76661;PMS5003;65579;45.534;6.212;2023-04-01T02:26:17;2;1;
76661;PMS5003;65579;45.534;6.212;2023-04-01T02:28:43;6;6;
76661;PMS5003;65579;45.534;6.212;2023-04-01T02:31:08;4;3;
76661;PMS5003;65579;45.534;6.212;2023-04-01T02:33:34;5;5;
76661;PMS5003;65579;45.534;6.212;2023-04-01T02:35:59;4;4;
76661;PMS5003;65579;45.534;6.212;2023-04-01T02:38:24;6;6;
76661;PMS5003;65579;45.534;6.212;2023-04-01T02:40:51;2;2;
76661;PMS5003;65579;45.534;6.212;2023-04-01T02:43:15;3;3;
76661;PMS5003;65579;45.534;6.212;2023-04-01T02:45:41;2;2;
76661;PMS5003;65579;45.534;6.212;2023-04-01T02:48:06;2;2;
76661;PMS5003;65579;45.534;6.212;2023-04-01T02:50:31;3;2;
76661;PMS5003;65579;45.534;6.212;2023-04-01T02:52:57;1;1;
76661;PMS5003;65579;45.534;6.212;2023-04-01T02:55:22;2;2;
76661;PMS5003;65579;45.534;6.212;2023-04-01T02:57:47;2;2;
76661;PMS5003;65579;45.534;6.212;2023-04-01T03:00:13;2;1;
76661;PMS5003;65579;45.534;6.212;2023-04-01T03:02:38;3;3;
76661;PMS5003;65579;45.534;6.212;2023-04-01T03:05:04;3;2;
76661;PMS5003;65579;45.534;6.212;2023-04-01T03:07:29;1;0;
76661;PMS5003;65579;45.534;6.212;2023-04-01T03:09:54;3;2;
76661;PMS5003;65579;45.534;6.212;2023-04-01T03:12:19;2;2;
76661;PMS5003;65579;45.534;6.212;2023-04-01T03:14:45;1;1;
76661;PMS5003;65579;45.534;6.212;2023-04-01T03:17:10;1;1;
76661;PMS5003;65579;45.534;6.212;2023-04-01T03:19:35;2;1;
76661;PMS5003;65579;45.534;6.212;2023-04-01T03:22:01;2;2;
76661;PMS5003;65579;45.534;6.212;2023-04-01T03:24:26;1;1;
76661;PMS5003;65579;45.534;6.212;2023-04-01T03:26:51;2;2;
76661;PMS5003;65579;45.534;6.212;2023-04-01T03:29:17;2;0;
76661;PMS5003;65579;45.534;6.212;2023-04-01T03:31:42;2;2;
76661;PMS5003;65579;45.534;6.212;2023-04-01T03:34:08;3;2;
76661;PMS5003;65579;45.534;6.212;2023-04-01T03:36:33;2;2;
76661;PMS5003;65579;45.534;6.212;2023-04-01T03:38:58;4;4;
76661;PMS5003;65579;45.534;6.212;2023-04-01T03:41:23;2;2;
76661;PMS5003;65579;45.534;6.212;2023-04-01T03:43:49;1;1;
76661;PMS5003;65579;45.534;6.212;2023-04-01T03:46:16;1;1;
76661;PMS5003;65579;45.534;6.212;2023-04-01T03:48:39;2;1;
76661;PMS5003;65579;45.534;6.212;2023-04-01T03:51:06;1;1;
76661;PMS5003;65579;45.534;6.212;2023-04-01T03:53:30;3;2;
76661;PMS5003;65579;45.534;6.212;2023-04-01T03:55:55;1;1;
76661;PMS5003;65579;45.534;6.212;2023-04-01T03:58:21;2;2;
76661;PMS5003;65579;45.534;6.212;2023-04-01T04:00:46;2;2;
76661;PMS5003;65579;45.534;6.212;2023-04-01T04:03:11;3;3;
76661;PMS5003;65579;45.534;6.212;2023-04-01T04:05:37;3;3;
76661;PMS5003;65579;45.534;6.212;2023-04-01T04:08:02;3;3;
76661;PMS5003;65579;45.534;6.212;2023-04-01T04:10:27;3;3;
76661;PMS5003;65579;45.534;6.212;2023-04-01T04:12:53;2;2;
76661;PMS5003;65579;45.534;6.212;2023-04-01T04:15:18;12;12;
76661;PMS5003;65579;45.534;6.212;2023-04-01T04:17:43;2;2;
76661;PMS5003;65579;45.534;6.212;2023-04-01T04:20:09;2;2;
76661;PMS5003;65579;45.534;6.212;2023-04-01T04:22:34;6;3;
76661;PMS5003;65579;45.534;6.212;2023-04-01T04:24:59;2;2;
76661;PMS5003;65579;45.534;6.212;2023-04-01T04:27:25;5;4;
76661;PMS5003;65579;45.534;6.212;2023-04-01T04:29:50;6;3;
76661;PMS5003;65579;45.534;6.212;2023-04-01T04:32:15;2;2;
76661;PMS5003;65579;45.534;6.212;2023-04-01T04:34:41;3;3;
76661;PMS5003;65579;45.534;6.212;2023-04-01T04:37:06;5;2;
76661;PMS5003;65579;45.534;6.212;2023-04-01T04:39:31;2;2;
76661;PMS5003;65579;45.534;6.212;2023-04-01T04:41:57;2;2;
76661;PMS5003;65579;45.534;6.212;2023-04-01T04:44:22;3;3;
76661;PMS5003;65579;45.534;6.212;2023-04-01T04:46:47;2;2;
76661;PMS5003;65579;45.534;6.212;2023-04-01T04:49:13;2;1;
76661;PMS5003;65579;45.534;6.212;2023-04-01T04:51:38;1;1;
76661;PMS5003;65579;45.534;6.212;2023-04-01T04:54:04;0;0;
76661;PMS5003;65579;45.534;6.212;2023-04-01T04:56:29;1;1;
76661;PMS5003;65579;45.534;6.212;2023-04-01T04:58:54;2;2;
76661;PMS5003;65579;45.534;6.212;2023-04-01T05:01:19;1;1;
76661;PMS5003;65579;45.534;6.212;2023-04-01T05:03:45;1;1;
76661;PMS5003;65579;45.534;6.212;2023-04-01T05:06:11;1;1;
76661;PMS5003;65579;45.534;6.212;2023-04-01T05:08:35;2;2;
76661;PMS5003;65579;45.534;6.212;2023-04-01T05:11:01;3;3;
76661;PMS5003;65579;45.534;6.212;2023-04-01T05:13:26;2;2;
76661;PMS5003;65579;45.534;6.212;2023-04-01T05:15:51;2;2;
76661;PMS5003;65579;45.534;6.212;2023-04-01T05:18:17;3;3;
76661;PMS5003;65579;45.534;6.212;2023-04-01T05:20:45;1;1;
76661;PMS5003;65579;45.534;6.212;2023-04-01T05:23:08;1;1;
76661;PMS5003;65579;45.534;6.212;2023-04-01T05:25:33;1;1;
76661;PMS5003;65579;45.534;6.212;2023-04-01T05:27:58;1;1;
76661;PMS5003;65579;45.534;6.212;2023-04-01T05:30:24;3;2;
76661;PMS5003;65579;45.534;6.212;2023-04-01T05:32:49;6;3;
76661;PMS5003;65579;45.534;6.212;2023-04-01T05:35:14;6;3;
76661;PMS5003;65579;45.534;6.212;2023-04-01T05:37:40;8;6;
76661;PMS5003;65579;45.534;6.212;2023-04-01T05:40:06;5;4;
76661;PMS5003;65579;45.534;6.212;2023-04-01T05:42:30;5;4;
76661;PMS5003;65579;45.534;6.212;2023-04-01T05:44:56;13;12;
76661;PMS5003;65579;45.534;6.212;2023-04-01T05:47:21;19;19;
76661;PMS5003;65579;45.534;6.212;2023-04-01T05:49:46;26;26;
76661;PMS5003;65579;45.534;6.212;2023-04-01T05:52:12;16;14;
76661;PMS5003;65579;45.534;6.212;2023-04-01T05:54:37;13;13;
76661;PMS5003;65579;45.534;6.212;2023-04-01T05:57:02;6;6;
76661;PMS5003;65579;45.534;6.212;2023-04-01T05:59:28;6;4;
76661;PMS5003;65579;45.534;6.212;2023-04-01T06:01:53;3;3;
76661;PMS5003;65579;45.534;6.212;2023-04-01T06:04:18;3;3;
76661;PMS5003;65579;45.534;6.212;2023-04-01T06:06:44;6;6;
76661;PMS5003;65579;45.534;6.212;2023-04-01T06:09:12;6;5;
76661;PMS5003;65579;45.534;6.212;2023-04-01T06:11:36;7;7;
76661;PMS5003;65579;45.534;6.212;2023-04-01T06:14:04;5;5;
76661;PMS5003;65579;45.534;6.212;2023-04-01T06:16:27;6;6;
76661;PMS5003;65579;45.534;6.212;2023-04-01T06:18:53;9;8;
76661;PMS5003;65579;45.534;6.212;2023-04-01T06:21:23;6;6;
76661;PMS5003;65579;45.534;6.212;2023-04-01T06:23:46;6;6;
76661;PMS5003;65579;45.534;6.212;2023-04-01T06:26:11;4;3;
76661;PMS5003;65579;45.534;6.212;2023-04-01T06:28:38;2;2;
76661;PMS5003;65579;45.534;6.212;2023-04-01T06:30:59;4;4;
76661;PMS5003;65579;45.534;6.212;2023-04-01T06:33:27;3;3;
76661;PMS5003;65579;45.534;6.212;2023-04-01T06:35:53;5;5;
76661;PMS5003;65579;45.534;6.212;2023-04-01T06:38:18;6;5;
76661;PMS5003;65579;45.534;6.212;2023-04-01T06:40:44;4;4;
76661;PMS5003;65579;45.534;6.212;2023-04-01T06:43:06;4;4;
76661;PMS5003;65579;45.534;6.212;2023-04-01T06:45:32;4;4;
76661;PMS5003;65579;45.534;6.212;2023-04-01T06:48:00;4;4;
76661;PMS5003;65579;45.534;6.212;2023-04-01T06:50:22;5;3;
76661;PMS5003;65579;45.534;6.212;2023-04-01T06:52:48;4;2;
76661;PMS5003;65579;45.534;6.212;2023-04-01T06:55:17;2;2;
76661;PMS5003;65579;45.534;6.212;2023-04-01T06:57:38;5;4;
76661;PMS5003;65579;45.534;6.212;2023-04-01T07:00:04;5;5;
76661;PMS5003;65579;45.534;6.212;2023-04-01T07:02:29;5;5;
76661;PMS5003;65579;45.534;6.212;2023-04-01T07:04:54;4;4;
76661;PMS5003;65579;45.534;6.212;2023-04-01T07:07:21;2;2;
76661;PMS5003;65579;45.534;6.212;2023-04-01T07:09:48;3;3;
76661;PMS5003;65579;45.534;6.212;2023-04-01T07:12:11;3;2;
76661;PMS5003;65579;45.534;6.212;2023-04-01T07:14:36;3;3;
76661;PMS5003;65579;45.534;6.212;2023-04-01T07:17:02;2;2;
76661;PMS5003;65579;45.534;6.212;2023-04-01T07:19:27;3;3;
76661;PMS5003;65579;45.534;6.212;2023-04-01T07:21:53;2;2;
76661;PMS5003;65579;45.534;6.212;2023-04-01T07:24:20;3;3;
76661;PMS5003;65579;45.534;6.212;2023-04-01T07:26:42;2;2;
76661;PMS5003;65579;45.534;6.212;2023-04-01T07:29:09;3;3;
76661;PMS5003;65579;45.534;6.212;2023-04-01T07:31:38;3;3;
76661;PMS5003;65579;45.534;6.212;2023-04-01T07:34:00;2;2;
76661;PMS5003;65579;45.534;6.212;2023-04-01T07:36:24;5;5;
76661;PMS5003;65579;45.534;6.212;2023-04-01T07:38:52;3;3;
76661;PMS5003;65579;45.534;6.212;2023-04-01T07:41:16;2;2;
76661;PMS5003;65579;45.534;6.212;2023-04-01T07:43:44;3;3;
76661;PMS5003;65579;45.534;6.212;2023-04-01T07:46:07;3;3;
76661;PMS5003;65579;45.534;6.212;2023-04-01T07:48:32;2;2;
76661;PMS5003;65579;45.534;6.212;2023-04-01T07:50:57;3;3;
76661;PMS5003;65579;45.534;6.212;2023-04-01T07:53:22;3;3;
76661;PMS5003;65579;45.534;6.212;2023-04-01T07:55:49;4;3;
76661;PMS5003;65579;45.534;6.212;2023-04-01T07:58:14;15;14;
76661;PMS5003;65579;45.534;6.212;2023-04-01T08:00:39;5;5;
76661;PMS5003;65579;45.534;6.212;2023-04-01T08:03:08;5;5;
76661;PMS5003;65579;45.534;6.212;2023-04-01T08:05:29;7;7;
76661;PMS5003;65579;45.534;6.212;2023-04-01T08:07:58;8;8;
76661;PMS5003;65579;45.534;6.212;2023-04-01T08:10:20;5;5;
76661;PMS5003;65579;45.534;6.212;2023-04-01T08:12:47;12;12;
76661;PMS5003;65579;45.534;6.212;2023-04-01T08:15:12;10;10;
76661;PMS5003;65579;45.534;6.212;2023-04-01T08:17:36;8;8;
76661;PMS5003;65579;45.534;6.212;2023-04-01T08:20:07;6;6;
76661;PMS5003;65579;45.534;6.212;2023-04-01T08:22:27;7;7;
76661;PMS5003;65579;45.534;6.212;2023-04-01T08:24:51;7;7;
76661;PMS5003;65579;45.534;6.212;2023-04-01T08:27:18;4;3;
76661;PMS5003;65579;45.534;6.212;2023-04-01T08:29:42;7;6;
76661;PMS5003;65579;45.534;6.212;2023-04-01T08:32:08;5;5;
76661;PMS5003;65579;45.534;6.212;2023-04-01T08:34:34;3;3;
76661;PMS5003;65579;45.534;6.212;2023-04-01T08:36:58;2;2;
76661;PMS5003;65579;45.534;6.212;2023-04-01T08:39:24;3;3;
76661;PMS5003;65579;45.534;6.212;2023-04-01T08:42:00;4;3;
76661;PMS5003;65579;45.534;6.212;2023-04-01T08:44:18;2;2;
76661;PMS5003;65579;45.534;6.212;2023-04-01T08:49:06;4;3;
76661;PMS5003;65579;45.534;6.212;2023-04-01T08:53:59;2;2;
76661;PMS5003;65579;45.534;6.212;2023-04-01T08:56:20;0;0;
76661;PMS5003;65579;45.534;6.212;2023-04-01T08:58:54;1;1;
76661;PMS5003;65579;45.534;6.212;2023-04-01T09:01:14;2;2;
76661;PMS5003;65579;45.534;6.212;2023-04-01T09:03:38;2;2;
76661;PMS5003;65579;45.534;6.212;2023-04-01T09:08:30;3;1;
76661;PMS5003;65579;45.534;6.212;2023-04-01T09:10:56;3;3;
76661;PMS5003;65579;45.534;6.212;2023-04-01T09:13:27;1;1;
76661;PMS5003;65579;45.534;6.212;2023-04-01T09:15:47;1;1;
76661;PMS5003;65579;45.534;6.212;2023-04-01T09:18:13;1;1;
76661;PMS5003;65579;45.534;6.212;2023-04-01T09:20:40;4;1;
76661;PMS5003;65579;45.534;6.212;2023-04-01T09:23:04;3;1;
76661;PMS5003;65579;45.534;6.212;2023-04-01T09:27:52;1;1;
76661;PMS5003;65579;45.534;6.212;2023-04-01T09:30:19;4;2;
76661;PMS5003;65579;45.534;6.212;2023-04-01T09:32:42;1;1;
76661;PMS5003;65579;45.534;6.212;2023-04-01T09:35:07;5;5;
76661;PMS5003;65579;45.534;6.212;2023-04-01T09:37:34;6;6;
76661;PMS5003;65579;45.534;6.212;2023-04-01T09:40:01;3;3;
76661;PMS5003;65579;45.534;6.212;2023-04-01T09:42:29;1;1;
76661;PMS5003;65579;45.534;6.212;2023-04-01T09:44:46;1;1;
76661;PMS5003;65579;45.534;6.212;2023-04-01T09:47:15;0;0;
76661;PMS5003;65579;45.534;6.212;2023-04-01T09:49:40;2;1;
76661;PMS5003;65579;45.534;6.212;2023-04-01T10:01:46;2;2;
76661;PMS5003;65579;45.534;6.212;2023-04-01T10:04:14;0;0;
76661;PMS5003;65579;45.534;6.212;2023-04-01T10:21:07;2;1;
76661;PMS5003;65579;45.534;6.212;2023-04-01T10:25:59;1;1;
76661;PMS5003;65579;45.534;6.212;2023-04-01T10:28:24;1;1;
76661;PMS5003;65579;45.534;6.212;2023-04-01T10:38:08;1;1;
76661;PMS5003;65579;45.534;6.212;2023-04-01T10:45:22;1;1;
76661;PMS5003;65579;45.534;6.212;2023-04-01T10:54:59;1;1;
76661;PMS5003;65579;45.534;6.212;2023-04-01T11:19:13;1;1;
76661;PMS5003;65579;45.534;6.212;2023-04-01T11:21:45;1;1;
76661;PMS5003;65579;45.534;6.212;2023-04-01T11:24:06;1;1;
76661;PMS5003;65579;45.534;6.212;2023-04-01T11:26:28;1;1;
76661;PMS5003;65579;45.534;6.212;2023-04-01T11:28:53;1;1;
76661;PMS5003;65579;45.534;6.212;2023-04-01T11:31:25;3;1;
76661;PMS5003;65579;45.534;6.212;2023-04-01T11:33:39;0;0;
76661;PMS5003;65579;45.534;6.212;2023-04-01T11:36:06;0;0;
76661;PMS5003;65579;45.534;6.212;2023-04-01T11:38:35;6;6;
76661;PMS5003;65579;45.534;6.212;2023-04-01T11:40:58;3;3;
76661;PMS5003;65579;45.534;6.212;2023-04-01T11:43:23;5;4;
76661;PMS5003;65579;45.534;6.212;2023-04-01T11:45:45;3;0;
76661;PMS5003;65579;45.534;6.212;2023-04-01T11:48:15;1;1;
76661;PMS5003;65579;45.534;6.212;2023-04-01T11:50:38;4;3;
76661;PMS5003;65579;45.534;6.212;2023-04-01T11:53:02;0;0;
76661;PMS5003;65579;45.534;6.212;2023-04-01T11:55:27;3;1;
76661;PMS5003;65579;45.534;6.212;2023-04-01T11:57:56;2;2;
76661;PMS5003;65579;45.534;6.212;2023-04-01T12:00:20;0;0;
76661;PMS5003;65579;45.534;6.212;2023-04-01T12:02:42;4;4;
76661;PMS5003;65579;45.534;6.212;2023-04-01T12:07:39;3;1;
76661;PMS5003;65579;45.534;6.212;2023-04-01T12:19:40;5;5;
76661;PMS5003;65579;45.534;6.212;2023-04-01T12:22:07;1;0;
76661;PMS5003;65579;45.534;6.212;2023-04-01T12:24:36;3;3;
76661;PMS5003;65579;45.534;6.212;2023-04-01T12:26:56;3;2;
76661;PMS5003;65579;45.534;6.212;2023-04-01T12:29:21;2;2;
76661;PMS5003;65579;45.534;6.212;2023-04-01T12:31:43;5;3;
76661;PMS5003;65579;45.534;6.212;2023-04-01T12:36:37;4;4;
76661;PMS5003;65579;45.534;6.212;2023-04-01T12:41:24;1;1;
76661;PMS5003;65579;45.534;6.212;2023-04-01T12:46:13;2;2;
76661;PMS5003;65579;45.534;6.212;2023-04-01T12:48:42;0;0;
76661;PMS5003;65579;45.534;6.212;2023-04-01T12:51:08;2;1;
76661;PMS5003;65579;45.534;6.212;2023-04-01T12:53:34;0;0;
76661;PMS5003;65579;45.534;6.212;2023-04-01T12:55:53;0;0;
76661;PMS5003;65579;45.534;6.212;2023-04-01T12:58:23;0;0;
76661;PMS5003;65579;45.534;6.212;2023-04-01T13:00:48;0;0;
76661;PMS5003;65579;45.534;6.212;2023-04-01T13:03:14;7;7;
76661;PMS5003;65579;45.534;6.212;2023-04-01T13:08:00;3;3;
76661;PMS5003;65579;45.534;6.212;2023-04-01T13:10:30;1;1;
76661;PMS5003;65579;45.534;6.212;2023-04-01T13:12:58;2;2;
76661;PMS5003;65579;45.534;6.212;2023-04-01T13:15:20;3;2;
76661;PMS5003;65579;45.534;6.212;2023-04-01T13:17:40;2;2;
76661;PMS5003;65579;45.534;6.212;2023-04-01T13:20:11;1;1;
76661;PMS5003;65579;45.534;6.212;2023-04-01T13:22:35;0;0;
76661;PMS5003;65579;45.534;6.212;2023-04-01T13:24:55;2;2;
76661;PMS5003;65579;45.534;6.212;2023-04-01T13:27:21;0;0;
76661;PMS5003;65579;45.534;6.212;2023-04-01T13:29:57;1;1;
76661;PMS5003;65579;45.534;6.212;2023-04-01T13:32:13;0;0;
76661;PMS5003;65579;45.534;6.212;2023-04-01T13:34:38;1;1;
76661;PMS5003;65579;45.534;6.212;2023-04-01T13:37:04;0;0;
76661;PMS5003;65579;45.534;6.212;2023-04-01T13:39:27;1;1;
76661;PMS5003;65579;45.534;6.212;2023-04-01T13:41:55;2;2;
76661;PMS5003;65579;45.534;6.212;2023-04-01T13:44:17;3;3;
76661;PMS5003;65579;45.534;6.212;2023-04-01T13:46:45;1;1;
76661;PMS5003;65579;45.534;6.212;2023-04-01T13:49:09;2;2;
76661;PMS5003;65579;45.534;6.212;2023-04-01T13:56:24;0;0;
76661;PMS5003;65579;45.534;6.212;2023-04-01T13:58:49;1;1;
76661;PMS5003;65579;45.534;6.212;2023-04-01T14:01:13;2;2;
76661;PMS5003;65579;45.534;6.212;2023-04-01T14:03:43;1;1;
76661;PMS5003;65579;45.534;6.212;2023-04-01T14:06:05;2;2;
76661;PMS5003;65579;45.534;6.212;2023-04-01T14:08:30;0;0;
76661;PMS5003;65579;45.534;6.212;2023-04-01T14:10:54;0;0;
76661;PMS5003;65579;45.534;6.212;2023-04-01T14:13:18;2;2;
76661;PMS5003;65579;45.534;6.212;2023-04-01T14:18:13;0;0;
76661;PMS5003;65579;45.534;6.212;2023-04-01T14:20:37;1;1;
76661;PMS5003;65579;45.534;6.212;2023-04-01T14:23:05;3;1;
76661;PMS5003;65579;45.534;6.212;2023-04-01T14:25:33;2;2;
76661;PMS5003;65579;45.534;6.212;2023-04-01T14:27:51;1;1;
76661;PMS5003;65579;45.534;6.212;2023-04-01T14:30:18;0;0;
76661;PMS5003;65579;45.534;6.212;2023-04-01T14:32:41;1;1;
76661;PMS5003;65579;45.534;6.212;2023-04-01T14:37:35;3;1;
76661;PMS5003;65579;45.534;6.212;2023-04-01T14:44:52;0;0;
76661;PMS5003;65579;45.534;6.212;2023-04-01T14:47:13;1;0;
76661;PMS5003;65579;45.534;6.212;2023-04-01T14:49:35;1;1;
76661;PMS5003;65579;45.534;6.212;2023-04-01T14:52:03;0;0;
76661;PMS5003;65579;45.534;6.212;2023-04-01T14:56:50;1;1;
76661;PMS5003;65579;45.534;6.212;2023-04-01T14:59:17;1;1;
76661;PMS5003;65579;45.534;6.212;2023-04-01T15:01:42;2;2;
76661;PMS5003;65579;45.534;6.212;2023-04-01T15:04:08;0;0;
76661;PMS5003;65579;45.534;6.212;2023-04-01T15:06:40;1;1;
76661;PMS5003;65579;45.534;6.212;2023-04-01T15:08:56;2;2;
76661;PMS5003;65579;45.534;6.212;2023-04-01T15:11:23;1;1;
76661;PMS5003;65579;45.534;6.212;2023-04-01T15:13:49;4;2;
76661;PMS5003;65579;45.534;6.212;2023-04-01T15:16:13;0;0;
76661;PMS5003;65579;45.534;6.212;2023-04-01T15:18:38;1;1;
76661;PMS5003;65579;45.534;6.212;2023-04-01T15:21:06;0;0;
76661;PMS5003;65579;45.534;6.212;2023-04-01T15:23:29;1;1;
76661;PMS5003;65579;45.534;6.212;2023-04-01T15:25:57;1;1;
76661;PMS5003;65579;45.534;6.212;2023-04-01T15:28:19;1;1;
76661;PMS5003;65579;45.534;6.212;2023-04-01T15:30:45;1;1;
76661;PMS5003;65579;45.534;6.212;2023-04-01T15:33:18;1;1;
76661;PMS5003;65579;45.534;6.212;2023-04-01T15:35:34;2;2;
76661;PMS5003;65579;45.534;6.212;2023-04-01T15:37:57;2;2;
76661;PMS5003;65579;45.534;6.212;2023-04-01T15:40:23;1;1;
76661;PMS5003;65579;45.534;6.212;2023-04-01T15:42:51;1;1;
76661;PMS5003;65579;45.534;6.212;2023-04-01T15:45:16;2;2;
76661;PMS5003;65579;45.534;6.212;2023-04-01T15:47:39;0;0;
76661;PMS5003;65579;45.534;6.212;2023-04-01T15:50:21;3;3;
76661;PMS5003;65579;45.534;6.212;2023-04-01T15:54:57;2;2;
76661;PMS5003;65579;45.534;6.212;2023-04-01T15:57:21;1;1;
76661;PMS5003;65579;45.534;6.212;2023-04-01T15:59:52;6;6;
76661;PMS5003;65579;45.534;6.212;2023-04-01T16:02:12;1;1;
76661;PMS5003;65579;45.534;6.212;2023-04-01T16:04:43;5;4;
76661;PMS5003;65579;45.534;6.212;2023-04-01T16:07:03;3;3;
76661;PMS5003;65579;45.534;6.212;2023-04-01T16:09:30;3;3;
76661;PMS5003;65579;45.534;6.212;2023-04-01T16:11:52;1;1;
76661;PMS5003;65579;45.534;6.212;2023-04-01T16:14:20;2;2;
76661;PMS5003;65579;45.534;6.212;2023-04-01T16:16:46;10;10;
76661;PMS5003;65579;45.534;6.212;2023-04-01T16:19:11;4;4;
76661;PMS5003;65579;45.534;6.212;2023-04-01T16:21:35;6;6;
76661;PMS5003;65579;45.534;6.212;2023-04-01T16:23:58;4;3;
76661;PMS5003;65579;45.534;6.212;2023-04-01T16:26:24;6;5;
76661;PMS5003;65579;45.534;6.212;2023-04-01T16:28:49;6;6;
76661;PMS5003;65579;45.534;6.212;2023-04-01T16:31:13;4;2;
76661;PMS5003;65579;45.534;6.212;2023-04-01T16:33:40;4;4;
76661;PMS5003;65579;45.534;6.212;2023-04-01T16:36:07;4;4;
76661;PMS5003;65579;45.534;6.212;2023-04-01T16:38:32;2;2;
76661;PMS5003;65579;45.534;6.212;2023-04-01T16:43:21;4;4;
76661;PMS5003;65579;45.534;6.212;2023-04-01T16:48:11;9;9;
76661;PMS5003;65579;45.534;6.212;2023-04-01T16:50:43;7;6;
76661;PMS5003;65579;45.534;6.212;2023-04-01T16:53:02;16;16;
76661;PMS5003;65579;45.534;6.212;2023-04-01T16:55:41;8;8;
76661;PMS5003;65579;45.534;6.212;2023-04-01T16:57:56;11;8;
76661;PMS5003;65579;45.534;6.212;2023-04-01T17:00:23;8;8;
76661;PMS5003;65579;45.534;6.212;2023-04-01T17:02:45;10;10;
76661;PMS5003;65579;45.534;6.212;2023-04-01T17:05:09;8;8;
76661;PMS5003;65579;45.534;6.212;2023-04-01T17:07:39;14;13;
76661;PMS5003;65579;45.534;6.212;2023-04-01T17:10:02;10;10;
76661;PMS5003;65579;45.534;6.212;2023-04-01T17:12:27;7;7;
76661;PMS5003;65579;45.534;6.212;2023-04-01T17:14:52;13;13;
76661;PMS5003;65579;45.534;6.212;2023-04-01T17:17:18;10;10;
76661;PMS5003;65579;45.534;6.212;2023-04-01T17:19:45;14;13;
76661;PMS5003;65579;45.534;6.212;2023-04-01T17:22:08;13;13;
76661;PMS5003;65579;45.534;6.212;2023-04-01T17:24:36;10;10;
76661;PMS5003;65579;45.534;6.212;2023-04-01T17:26:59;12;10;
76661;PMS5003;65579;45.534;6.212;2023-04-01T17:29:23;22;22;
76661;PMS5003;65579;45.534;6.212;2023-04-01T17:31:51;13;13;
76661;PMS5003;65579;45.534;6.212;2023-04-01T17:34:18;7;6;
76661;PMS5003;65579;45.534;6.212;2023-04-01T17:36:45;10;9;
76661;PMS5003;65579;45.534;6.212;2023-04-01T17:39:11;16;14;
76661;PMS5003;65579;45.534;6.212;2023-04-01T17:41:32;7;7;
76661;PMS5003;65579;45.534;6.212;2023-04-01T17:43:58;8;8;
76661;PMS5003;65579;45.534;6.212;2023-04-01T17:46:26;20;19;
76661;PMS5003;65579;45.534;6.212;2023-04-01T17:48:49;8;6;
76661;PMS5003;65579;45.534;6.212;2023-04-01T17:51:16;8;7;
76661;PMS5003;65579;45.534;6.212;2023-04-01T17:53:41;7;7;
76661;PMS5003;65579;45.534;6.212;2023-04-01T17:56:08;10;9;
76661;PMS5003;65579;45.534;6.212;2023-04-01T17:58:29;4;4;
76661;PMS5003;65579;45.534;6.212;2023-04-01T18:00:59;10;5;
76661;PMS5003;65579;45.534;6.212;2023-04-01T18:03:20;6;6;
76661;PMS5003;65579;45.534;6.212;2023-04-01T18:05:51;2;2;
76661;PMS5003;65579;45.534;6.212;2023-04-01T18:08:12;7;7;
76661;PMS5003;65579;45.534;6.212;2023-04-01T18:10:37;9;8;
76661;PMS5003;65579;45.534;6.212;2023-04-01T18:13:07;15;12;
76661;PMS5003;65579;45.534;6.212;2023-04-01T18:15:27;23;20;
76661;PMS5003;65579;45.534;6.212;2023-04-01T18:17:56;10;8;
76661;PMS5003;65579;45.534;6.212;2023-04-01T18:20:22;5;5;
76661;PMS5003;65579;45.534;6.212;2023-04-01T18:22:45;9;8;
76661;PMS5003;65579;45.534;6.212;2023-04-01T18:25:15;2;2;
76661;PMS5003;65579;45.534;6.212;2023-04-01T18:27:36;10;10;
76661;PMS5003;65579;45.534;6.212;2023-04-01T18:30:01;8;8;
76661;PMS5003;65579;45.534;6.212;2023-04-01T18:32:28;9;7;
76661;PMS5003;65579;45.534;6.212;2023-04-01T18:34:53;4;4;
76661;PMS5003;65579;45.534;6.212;2023-04-01T18:37:17;6;6;
76661;PMS5003;65579;45.534;6.212;2023-04-01T18:39:42;4;4;